Time;durP1;ratioP1;P1;durP2;ratioP2;P2;SDS_P1;SDS_P2;PMS_P1;PMS_P2;Temp;Humidity;BMP_temperature;BMP_pressure;BME280_temperature;BME280_humidity;BME280_pressure;Samples;Min_cycle;Max_cycle;Signal;HPM_P1;HPM_P2
2020/12/25 00:01:56;;;;;;;0.20;0.20;;;5.10;94.50;;;;;;5104402;28;27512;-48
2020/12/25 00:04:41;;;;;;;0.25;0.25;;;5.10;94.50;;;;;;5103934;28;27604;-48
2020/12/25 00:07:25;;;;;;;0.10;0.10;;;5.10;94.50;;;;;;5104304;28;27443;-43
2020/12/25 00:10:10;;;;;;;0.20;0.20;;;5.10;94.50;;;;;;5104293;28;27493;-46
2020/12/25 00:12:55;;;;;;;0.40;0.25;;;5.10;94.50;;;;;;5104338;28;27425;-47
2020/12/25 00:15:39;;;;;;;0.20;0.20;;;5.10;94.50;;;;;;5104297;28;27404;-42
2020/12/25 00:18:24;;;;;;;0.10;0.10;;;5.10;94.60;;;;;;5104080;28;27383;-48
2020/12/25 00:21:09;;;;;;;0.20;0.20;;;5.00;94.50;;;;;;5100923;28;27390;-45
2020/12/25 00:23:53;;;;;;;0.20;0.20;;;5.00;94.50;;;;;;5104455;28;27432;-45
2020/12/25 00:26:38;;;;;;;0.20;0.20;;;5.00;94.50;;;;;;5104403;28;27339;-47
2020/12/25 00:29:22;;;;;;;0.20;0.20;;;5.00;94.50;;;;;;5107751;28;27344;-46
2020/12/25 00:32:06;;;;;;;0.20;0.20;;;5.00;94.50;;;;;;5107964;28;27335;-45
2020/12/25 00:34:51;;;;;;;0.20;0.20;;;5.00;94.50;;;;;;5107933;28;27405;-46
2020/12/25 00:37:35;;;;;;;0.22;0.22;;;5.00;94.50;;;;;;5108058;28;27445;-46
2020/12/25 00:40:20;;;;;;;0.32;0.30;;;5.00;94.50;;;;;;5107889;28;27448;-48
2020/12/25 00:43:05;;;;;;;0.30;0.30;;;4.90;94.40;;;;;;5104613;28;27406;-47
2020/12/25 00:45:50;;;;;;;0.30;0.30;;;4.90;94.50;;;;;;5106798;28;27454;-48
2020/12/25 00:48:35;;;;;;;0.25;0.20;;;4.90;94.60;;;;;;5104170;28;27465;-48
2020/12/25 00:51:20;;;;;;;0.30;0.30;;;4.90;94.50;;;;;;5107724;28;26915;-47
2020/12/25 00:54:08;;;;;;;0.40;0.40;;;4.90;94.60;;;;;;5107340;28;27399;-46
2020/12/25 00:57:11;;;;;;;0.38;0.38;;;4.90;94.60;;;;;;5107348;28;27396;-45
2020/12/25 01:00:12;;;;;;;0.40;0.40;;;4.90;94.60;;;;;;5107660;28;27418;-46
2020/12/25 01:02:56;;;;;;;0.30;0.30;;;4.80;94.70;;;;;;5106538;28;27485;-46
2020/12/25 01:05:41;;;;;;;0.22;0.22;;;4.90;94.70;;;;;;5106640;28;27425;-49
2020/12/25 01:08:25;;;;;;;0.50;0.50;;;4.90;94.70;;;;;;5107165;28;27478;-47
2020/12/25 01:11:10;;;;;;;0.40;0.40;;;4.90;94.80;;;;;;5107206;28;27365;-47
2020/12/25 01:13:55;;;;;;;0.82;0.50;;;4.90;94.80;;;;;;5106744;28;27422;-49
2020/12/25 01:16:39;;;;;;;0.40;0.40;;;4.80;94.70;;;;;;5107124;28;27466;-44
2020/12/25 01:19:25;;;;;;;0.47;0.47;;;4.80;94.70;;;;;;5107327;28;27372;-48
2020/12/25 01:22:09;;;;;;;0.30;0.30;;;4.90;94.70;;;;;;5107316;28;27350;-48
2020/12/25 01:24:53;;;;;;;0.63;0.50;;;4.80;94.70;;;;;;5107174;28;27339;-48
2020/12/25 01:27:38;;;;;;;0.75;0.60;;;4.80;94.70;;;;;;5106838;28;27324;-47
2020/12/25 01:30:22;;;;;;;0.75;0.40;;;4.80;94.70;;;;;;5107101;28;27410;-48
2020/12/25 01:33:07;;;;;;;0.50;0.50;;;4.80;94.70;;;;;;5107121;28;27320;-47
2020/12/25 01:35:51;;;;;;;0.70;0.60;;;4.80;94.60;;;;;;5106804;28;27329;-48
2020/12/25 01:38:35;;;;;;;0.60;0.60;;;4.80;94.50;;;;;;5106487;28;27488;-47
2020/12/25 01:41:20;;;;;;;0.77;0.70;;;4.70;94.50;;;;;;5106293;28;27462;-48
2020/12/25 01:44:04;;;;;;;0.68;0.50;;;4.70;94.50;;;;;;5106940;28;27426;-47
2020/12/25 01:46:49;;;;;;;1.63;0.82;;;4.70;94.60;;;;;;5106517;28;27393;-49
2020/12/25 01:49:34;;;;;;;1.00;0.82;;;4.70;94.60;;;;;;5106801;28;27426;-46
2020/12/25 01:52:18;;;;;;;0.85;0.80;;;4.70;94.60;;;;;;5106427;28;27480;-48
2020/12/25 01:55:04;;;;;;;0.73;0.60;;;4.70;94.70;;;;;;5106810;28;26879;-47
2020/12/25 01:57:49;;;;;;;0.90;0.70;;;4.70;94.70;;;;;;5103394;28;27392;-48
2020/12/25 02:00:34;;;;;;;0.82;0.82;;;4.70;94.70;;;;;;5105858;28;27434;-49
2020/12/25 02:03:18;;;;;;;1.08;0.80;;;4.70;94.80;;;;;;5106543;28;27402;-49
2020/12/25 02:06:03;;;;;;;2.55;0.90;;;4.70;94.70;;;;;;5105473;28;27052;-47
2020/12/25 02:08:47;;;;;;;1.35;1.23;;;4.70;94.80;;;;;;5105744;28;27461;-48
2020/12/25 02:11:32;;;;;;;1.10;0.90;;;4.60;94.80;;;;;;5106172;28;27486;-47
2020/12/25 02:14:17;;;;;;;1.50;1.20;;;4.60;94.90;;;;;;5105624;28;27470;-48
2020/12/25 02:17:01;;;;;;;2.10;0.80;;;4.70;94.90;;;;;;5106445;28;27480;-48
2020/12/25 02:19:46;;;;;;;1.95;1.08;;;4.60;95.00;;;;;;5106399;28;27449;-48
2020/12/25 02:22:31;;;;;;;1.10;1.00;;;4.60;95.00;;;;;;5106259;28;27896;-48
2020/12/25 02:25:15;;;;;;;1.35;1.10;;;4.70;95.10;;;;;;5102137;28;27386;-48
2020/12/25 02:27:59;;;;;;;1.40;1.02;;;4.70;95.10;;;;;;5106325;28;27363;-48
2020/12/25 02:30:44;;;;;;;1.35;1.15;;;4.70;95.10;;;;;;5106239;28;27328;-47
2020/12/25 02:33:28;;;;;;;1.30;1.20;;;4.70;95.10;;;;;;5106057;28;27974;-50
2020/12/25 02:36:13;;;;;;;2.60;1.00;;;4.70;95.10;;;;;;5105706;28;27573;-48
2020/12/25 02:38:57;;;;;;;1.90;1.23;;;4.70;95.40;;;;;;5106133;28;27382;-48
2020/12/25 02:41:42;;;;;;;1.17;1.08;;;4.70;95.00;;;;;;5105738;28;27330;-48
2020/12/25 02:44:26;;;;;;;2.45;1.33;;;4.70;95.00;;;;;;5101879;28;27944;-47
2020/12/25 02:47:11;;;;;;;1.10;1.00;;;4.70;95.00;;;;;;5105571;28;27347;-48
2020/12/25 02:49:57;;;;;;;1.77;1.13;;;4.70;95.10;;;;;;5104639;27;27340;-47
2020/12/25 02:52:41;;;;;;;1.98;1.17;;;4.70;95.10;;;;;;5102265;28;27392;-47
2020/12/25 02:55:26;;;;;;;1.10;1.00;;;4.70;95.00;;;;;;5105446;28;27371;-48
2020/12/25 02:58:11;;;;;;;3.15;1.33;;;4.70;95.00;;;;;;5104993;28;27477;-48
2020/12/25 03:00:55;;;;;;;1.63;1.38;;;4.70;95.10;;;;;;5105608;28;27477;-46
2020/12/25 03:03:40;;;;;;;2.03;1.15;;;4.70;95.10;;;;;;5102082;28;27413;-47
2020/12/25 03:06:25;;;;;;;2.15;1.27;;;4.70;95.10;;;;;;5104693;28;27425;-49
2020/12/25 03:09:09;;;;;;;2.20;1.42;;;4.70;95.20;;;;;;5105222;28;27421;-47
2020/12/25 03:11:54;;;;;;;1.58;1.10;;;4.70;95.30;;;;;;5105311;28;27426;-47
2020/12/25 03:14:39;;;;;;;1.48;1.23;;;4.70;95.20;;;;;;5105438;28;27469;-47
2020/12/25 03:17:23;;;;;;;1.23;1.10;;;4.70;95.20;;;;;;5105185;28;27453;-47
2020/12/25 03:20:08;;;;;;;0.90;0.90;;;4.70;95.30;;;;;;5105336;28;27455;-49
2020/12/25 03:22:52;;;;;;;1.58;1.38;;;4.80;95.30;;;;;;5105440;28;27419;-47
2020/12/25 03:25:37;;;;;;;1.40;1.30;;;4.70;95.30;;;;;;5104867;28;27450;-46
2020/12/25 03:28:21;;;;;;;1.42;1.33;;;4.80;95.30;;;;;;5105244;28;27414;-49
2020/12/25 03:31:06;;;;;;;1.48;1.20;;;4.80;95.40;;;;;;5104412;28;27500;-47
2020/12/25 03:33:50;;;;;;;1.50;1.40;;;4.80;95.30;;;;;;5105012;28;27405;-48
2020/12/25 03:36:35;;;;;;;2.13;1.92;;;4.80;95.30;;;;;;5104873;28;27393;-46
2020/12/25 03:39:20;;;;;;;1.90;1.33;;;4.80;95.30;;;;;;5101468;28;27370;-48
2020/12/25 03:42:05;;;;;;;1.15;1.08;;;4.80;95.30;;;;;;5105028;28;27428;-47
2020/12/25 03:44:54;;;;;;;1.60;1.50;;;4.80;95.30;;;;;;5104734;28;27362;-48
2020/12/25 03:47:39;;;;;;;2.13;1.40;;;4.80;95.30;;;;;;5104649;28;27416;-47
2020/12/25 03:50:23;;;;;;;1.60;1.50;;;4.80;95.30;;;;;;5104580;28;27464;-46
2020/12/25 03:53:07;;;;;;;1.40;0.93;;;4.80;95.30;;;;;;5104538;28;27428;-47
2020/12/25 03:55:52;;;;;;;1.50;1.40;;;4.70;95.30;;;;;;5101376;28;27449;-47
2020/12/25 03:58:37;;;;;;;1.77;1.27;;;4.80;95.40;;;;;;5101263;28;27476;-47
2020/12/25 04:01:21;;;;;;;1.38;1.27;;;4.80;95.40;;;;;;5104247;28;27485;-47
2020/12/25 04:04:05;;;;;;;1.52;1.40;;;4.80;95.40;;;;;;5104685;28;27770;-48
2020/12/25 04:06:50;;;;;;;1.70;1.38;;;4.80;95.40;;;;;;5104216;28;27319;-45
2020/12/25 04:09:34;;;;;;;2.10;1.30;;;4.80;95.40;;;;;;5100388;28;27417;-46
2020/12/25 04:12:19;;;;;;;1.75;1.17;;;4.80;95.40;;;;;;5104360;28;27389;-46
2020/12/25 04:15:03;;;;;;;1.30;1.10;;;4.80;95.40;;;;;;5104606;28;27359;-46
2020/12/25 04:17:48;;;;;;;1.33;1.20;;;4.80;95.40;;;;;;5104324;28;27334;-46
2020/12/25 04:20:32;;;;;;;1.27;1.17;;;4.80;95.40;;;;;;5104303;28;27369;-47
2020/12/25 04:23:16;;;;;;;1.40;1.17;;;4.80;95.40;;;;;;5103982;28;27469;-47
2020/12/25 04:26:01;;;;;;;2.47;1.15;;;4.80;95.40;;;;;;5104281;28;27347;-47
2020/12/25 04:28:45;;;;;;;1.38;1.27;;;4.70;95.40;;;;;;5104496;28;27390;-47
2020/12/25 04:31:30;;;;;;;2.03;1.40;;;4.80;95.80;;;;;;5104427;28;27484;-46
2020/12/25 04:34:14;;;;;;;2.05;1.20;;;4.70;95.50;;;;;;5104088;28;27892;-47
2020/12/25 04:36:59;;;;;;;1.50;1.13;;;4.70;95.50;;;;;;5104027;28;27430;-46
2020/12/25 04:39:44;;;;;;;1.48;1.00;;;4.70;95.50;;;;;;5104091;28;27430;-47
2020/12/25 04:42:29;;;;;;;1.17;1.08;;;4.70;95.50;;;;;;5104355;28;27469;-47
2020/12/25 04:45:13;;;;;;;1.60;0.95;;;4.70;95.50;;;;;;5103100;28;27391;-47
2020/12/25 04:47:58;;;;;;;0.80;0.80;;;4.70;95.50;;;;;;5103932;28;27514;-48
2020/12/25 04:50:42;;;;;;;1.58;1.05;;;4.70;95.50;;;;;;5100953;28;27390;-47
2020/12/25 04:53:27;;;;;;;0.90;0.90;;;4.60;95.50;;;;;;5100885;28;27528;-45
2020/12/25 04:56:12;;;;;;;1.23;0.80;;;4.70;95.60;;;;;;5103093;28;27957;-46
2020/12/25 04:58:57;;;;;;;1.10;0.82;;;4.70;95.60;;;;;;5103748;28;27418;-48
2020/12/25 05:01:42;;;;;;;0.70;0.70;;;4.60;95.60;;;;;;5103793;28;27406;-47
2020/12/25 05:04:27;;;;;;;1.10;1.00;;;4.70;95.70;;;;;;5103235;28;27398;-42
2020/12/25 05:07:14;;;;;;;1.42;1.20;;;4.60;95.70;;;;;;5103627;28;27459;-47
2020/12/25 05:09:58;;;;;;;0.73;0.70;;;4.70;95.80;;;;;;5103171;28;27496;-46
2020/12/25 05:12:47;;;;;;;2.15;0.90;;;4.70;95.80;;;;;;5105069;27;27473;-43
2020/12/25 05:15:32;;;;;;;1.73;0.70;;;4.60;96.10;;;;;;5106418;28;27319;-46
2020/12/25 05:18:17;;;;;;;2.72;0.90;;;4.60;95.70;;;;;;5106731;28;28044;-47
2020/12/25 05:21:08;;;;;;;0.50;0.50;;;4.60;95.80;;;;;;5121181;27;27343;-46
2020/12/25 05:23:54;;;;;;;2.15;0.82;;;4.60;95.80;;;;;;5106973;28;27486;-47
2020/12/25 05:26:39;;;;;;;0.90;0.70;;;4.60;95.80;;;;;;5106878;28;27579;-46
2020/12/25 05:29:24;;;;;;;1.13;0.60;;;4.60;95.80;;;;;;5106110;28;27520;-48
2020/12/25 05:32:09;;;;;;;0.70;0.60;;;4.60;95.90;;;;;;5103775;28;27446;-46
2020/12/25 05:34:54;;;;;;;0.68;0.68;;;4.60;95.90;;;;;;5107106;28;27468;-47
2020/12/25 05:37:39;;;;;;;0.70;0.65;;;4.60;95.80;;;;;;5106671;28;27391;-46
2020/12/25 05:40:23;;;;;;;1.50;0.85;;;4.60;95.90;;;;;;5106663;28;27458;-43
2020/12/25 05:43:08;;;;;;;0.77;0.77;;;4.60;95.90;;;;;;5106619;28;27557;-46
2020/12/25 05:45:53;;;;;;;0.95;0.75;;;4.60;95.90;;;;;;5106164;28;28612;-48
2020/12/25 05:48:37;;;;;;;1.00;0.90;;;4.60;95.90;;;;;;5106773;28;27407;-47
2020/12/25 05:51:22;;;;;;;0.60;0.60;;;4.50;95.90;;;;;;5106729;28;27399;-47
2020/12/25 05:54:06;;;;;;;0.70;0.63;;;4.60;95.90;;;;;;5106477;28;27522;-47
2020/12/25 05:56:55;;;;;;;1.13;0.70;;;4.50;95.90;;;;;;5120352;27;27568;-47
2020/12/25 05:59:40;;;;;;;2.33;0.80;;;4.50;95.90;;;;;;5106291;28;27456;-47
2020/12/25 06:02:24;;;;;;;0.73;0.63;;;4.50;95.90;;;;;;5105765;28;27513;-48
2020/12/25 06:05:09;;;;;;;0.47;0.47;;;4.50;95.90;;;;;;5119372;27;27697;-48
2020/12/25 06:07:57;;;;;;;0.70;0.60;;;4.50;95.80;;;;;;5120566;27;27501;-48
2020/12/25 06:10:43;;;;;;;1.27;0.93;;;4.40;95.90;;;;;;5105465;28;27380;-49
2020/12/25 06:13:40;;;;;;;0.98;0.85;;;4.40;95.90;;;;;;5106199;28;27377;-47
2020/12/25 06:16:27;;;;;;;0.65;0.50;;;4.40;95.90;;;;;;5106432;28;27359;-44
2020/12/25 06:19:17;;;;;;;0.60;0.60;;;4.40;96.20;;;;;;5105737;28;27402;-47
2020/12/25 06:22:05;;;;;;;0.43;0.43;;;4.40;95.90;;;;;;5105628;28;27453;-48
2020/12/25 06:24:51;;;;;;;0.60;0.60;;;4.30;95.80;;;;;;5106173;27;27370;-48
2020/12/25 06:27:36;;;;;;;1.23;0.90;;;4.30;95.90;;;;;;5105996;28;27366;-47
2020/12/25 06:30:24;;;;;;;0.95;0.60;;;4.30;95.80;;;;;;5105483;28;27485;-47
2020/12/25 06:33:09;;;;;;;1.52;0.80;;;4.30;95.90;;;;;;5106205;28;27434;-48
2020/12/25 06:35:58;;;;;;;1.25;0.82;;;4.30;95.90;;;;;;5119669;27;27859;-47
2020/12/25 06:38:43;;;;;;;2.67;0.88;;;4.30;95.90;;;;;;5105374;28;27454;-47
2020/12/25 06:41:27;;;;;;;1.00;0.90;;;4.30;95.90;;;;;;5104048;28;27331;-48
2020/12/25 06:44:16;;;;;;;1.05;0.73;;;4.30;95.90;;;;;;5105733;28;27336;-46
2020/12/25 06:47:02;;;;;;;1.25;0.95;;;4.20;95.90;;;;;;5105293;28;27375;-48
2020/12/25 06:49:49;;;;;;;1.80;1.17;;;4.30;95.90;;;;;;5105827;28;27422;-48
2020/12/25 06:53:00;;;;;;;1.80;1.17;;;4.30;96.00;;;;;;5104925;28;27458;-44
2020/12/25 06:55:45;;;;;;;2.58;1.17;;;4.20;96.00;;;;;;5102574;28;27413;-48
2020/12/25 06:58:35;;;;;;;1.17;0.82;;;4.20;96.10;;;;;;5105444;28;27980;-48
2020/12/25 07:01:43;;;;;;;1.52;1.13;;;4.20;96.10;;;;;;5105400;28;27419;-47
2020/12/25 07:04:29;;;;;;;2.97;1.20;;;4.20;96.10;;;;;;5104896;28;27385;-48
2020/12/25 07:07:14;;;;;;;1.80;1.23;;;4.20;96.10;;;;;;5105310;28;27369;-48
2020/12/25 07:10:11;;;;;;;1.30;1.20;;;4.20;96.00;;;;;;5104744;28;27334;-48
2020/12/25 07:12:56;;;;;;;3.28;1.15;;;4.20;96.00;;;;;;5105474;28;27491;-48
2020/12/25 07:15:40;;;;;;;1.40;1.25;;;4.20;96.00;;;;;;5105482;28;27412;-48
2020/12/25 07:18:25;;;;;;;1.60;1.15;;;4.20;96.10;;;;;;5105426;28;27348;-48
2020/12/25 07:21:10;;;;;;;1.17;1.05;;;4.10;96.00;;;;;;5101838;28;27397;-47
2020/12/25 07:23:54;;;;;;;1.73;1.33;;;4.10;96.00;;;;;;5105376;28;27434;-48
2020/12/25 07:26:39;;;;;;;1.55;1.35;;;4.10;96.00;;;;;;5104813;28;27433;-48
2020/12/25 07:29:23;;;;;;;2.45;1.77;;;4.10;96.10;;;;;;5104534;28;27393;-49
2020/12/25 07:32:08;;;;;;;1.48;1.27;;;4.10;96.10;;;;;;5104943;28;27359;-51
2020/12/25 07:34:53;;;;;;;2.47;1.60;;;4.00;95.90;;;;;;5104795;28;27569;-48
2020/12/25 07:37:37;;;;;;;3.80;1.55;;;4.00;95.90;;;;;;5101910;28;27379;-48
2020/12/25 07:40:22;;;;;;;1.27;1.17;;;4.00;96.00;;;;;;5105134;28;27444;-48
2020/12/25 07:43:06;;;;;;;3.70;1.40;;;4.00;96.00;;;;;;5105019;28;27429;-47
2020/12/25 07:45:51;;;;;;;2.75;1.90;;;4.00;96.00;;;;;;5104516;28;27446;-48
2020/12/25 07:48:35;;;;;;;2.47;1.60;;;4.00;96.00;;;;;;5105039;28;26914;-48
2020/12/25 07:51:20;;;;;;;2.10;1.48;;;4.00;96.00;;;;;;5104644;28;27480;-48
2020/12/25 07:54:04;;;;;;;2.15;1.70;;;4.00;96.00;;;;;;5103854;28;27549;-48
2020/12/25 07:56:49;;;;;;;3.05;1.90;;;4.00;96.00;;;;;;5104512;28;27471;-48
2020/12/25 07:59:34;;;;;;;2.45;1.70;;;4.00;96.00;;;;;;5104860;28;27472;-48
2020/12/25 08:02:19;;;;;;;2.92;2.15;;;4.00;96.00;;;;;;5118367;27;27469;-49
2020/12/25 08:05:10;;;;;;;2.28;1.75;;;4.10;96.10;;;;;;5103096;28;27508;-48
2020/12/25 08:07:56;;;;;;;3.08;2.00;;;4.00;96.10;;;;;;5104758;28;27327;-47
2020/12/25 08:10:41;;;;;;;2.58;2.20;;;4.00;96.00;;;;;;5104480;28;27454;-47
2020/12/25 08:13:25;;;;;;;2.00;1.80;;;4.10;95.90;;;;;;5114886;27;27380;-48
2020/12/25 08:16:10;;;;;;;2.17;1.98;;;4.10;95.90;;;;;;5103498;28;27346;-48
2020/12/25 08:18:55;;;;;;;3.55;2.70;;;4.10;95.90;;;;;;5103844;28;27507;-48
2020/12/25 08:21:40;;;;;;;2.13;1.92;;;4.10;95.90;;;;;;5103472;28;27392;-47
2020/12/25 08:24:25;;;;;;;3.58;2.25;;;4.20;96.00;;;;;;5104196;28;27331;-47
2020/12/25 08:27:10;;;;;;;3.35;2.50;;;4.20;95.90;;;;;;5104058;28;27859;-49
2020/12/25 08:29:54;;;;;;;2.70;2.33;;;4.20;96.00;;;;;;5104312;28;27312;-47
2020/12/25 08:32:40;;;;;;;3.47;2.50;;;4.20;95.90;;;;;;5101088;28;27412;-47
2020/12/25 08:35:27;;;;;;;3.15;2.40;;;4.20;95.80;;;;;;5103275;28;27367;-49
2020/12/25 08:38:16;;;;;;;3.97;2.45;;;4.20;95.90;;;;;;5104254;28;27434;-46
2020/12/25 08:41:05;;;;;;;3.22;2.53;;;4.20;95.90;;;;;;5103892;28;27482;-47
2020/12/25 08:43:50;;;;;;;3.53;2.70;;;4.20;95.90;;;;;;5104208;28;27418;-47
2020/12/25 08:46:35;;;;;;;2.25;2.05;;;4.30;96.00;;;;;;5103983;27;26881;-48
2020/12/25 08:49:26;;;;;;;2.03;1.83;;;4.30;96.00;;;;;;5106641;28;27394;-47
2020/12/25 08:52:23;;;;;;;3.10;2.30;;;4.30;96.00;;;;;;5107431;28;27432;-48
2020/12/25 08:55:08;;;;;;;3.13;2.33;;;4.30;96.00;;;;;;5104477;28;27374;-47
2020/12/25 08:57:53;;;;;;;2.28;2.00;;;4.30;96.00;;;;;;5107439;28;27385;-47
2020/12/25 09:00:38;;;;;;;2.35;2.13;;;4.40;96.10;;;;;;5104011;28;27445;-47
2020/12/25 09:03:22;;;;;;;4.60;3.03;;;4.40;95.90;;;;;;5107299;28;27336;-47
2020/12/25 09:06:08;;;;;;;2.40;1.92;;;4.40;95.90;;;;;;5105969;28;27423;-47
2020/12/25 09:08:52;;;;;;;2.30;2.00;;;4.50;95.80;;;;;;5107541;28;27411;-47
2020/12/25 09:11:37;;;;;;;3.38;2.15;;;4.50;95.70;;;;;;5107133;28;27339;-47
2020/12/25 09:14:21;;;;;;;3.25;2.38;;;4.50;95.60;;;;;;5107034;28;27413;-47
2020/12/25 09:17:06;;;;;;;2.40;2.20;;;4.60;95.60;;;;;;5107434;28;27439;-46
2020/12/25 09:19:51;;;;;;;3.08;2.63;;;4.60;95.50;;;;;;5107288;28;27403;-48
2020/12/25 09:22:35;;;;;;;3.67;3.10;;;4.70;95.40;;;;;;5107210;28;27461;-48
2020/12/25 09:25:20;;;;;;;5.38;2.75;;;4.70;95.50;;;;;;5106533;28;27454;-48
2020/12/25 09:28:04;;;;;;;3.50;2.80;;;4.80;95.40;;;;;;5106968;28;27495;-47
2020/12/25 09:30:49;;;;;;;3.17;2.85;;;4.90;95.50;;;;;;5106958;28;27465;-48
2020/12/25 09:33:33;;;;;;;4.30;3.17;;;5.00;95.40;;;;;;5107117;28;27457;-47
2020/12/25 09:36:18;;;;;;;5.82;3.97;;;5.20;95.40;;;;;;5107060;28;27497;-47
2020/12/25 09:39:02;;;;;;;6.93;5.53;;;5.30;95.10;;;;;;5106845;28;27482;-49
2020/12/25 09:41:50;;;;;;;10.95;7.15;;;5.40;95.10;;;;;;5107064;28;27453;-48
2020/12/25 09:44:36;;;;;;;9.93;6.65;;;5.60;94.90;;;;;;5106911;28;28100;-47
2020/12/25 09:47:21;;;;;;;10.70;6.88;;;5.70;94.60;;;;;;5105840;28;27477;-48
2020/12/25 09:50:05;;;;;;;9.68;6.40;;;5.70;94.40;;;;;;5106609;28;27485;-44
2020/12/25 09:52:49;;;;;;;10.20;6.93;;;5.80;94.40;;;;;;5106792;28;27461;-46
2020/12/25 09:55:39;;;;;;;12.88;8.05;;;5.80;94.40;;;;;;5103197;28;27471;-48
2020/12/25 09:58:23;;;;;;;12.68;8.75;;;5.80;94.60;;;;;;5106118;28;27408;-46
2020/12/25 10:01:08;;;;;;;16.50;10.05;;;5.80;94.50;;;;;;5106683;28;27381;-48
2020/12/25 10:03:52;;;;;;;16.38;9.82;;;5.80;94.40;;;;;;5106695;28;27317;-48
2020/12/25 10:06:36;;;;;;;17.92;11.02;;;5.80;94.30;;;;;;5105960;28;27344;-47
2020/12/25 10:09:21;;;;;;;21.45;12.65;;;5.80;94.40;;;;;;5106255;28;27460;-48
2020/12/25 10:12:06;;;;;;;18.20;12.00;;;5.80;94.30;;;;;;5106572;28;27426;-48
2020/12/25 10:14:50;;;;;;;20.13;11.68;;;5.70;94.20;;;;;;5106490;28;27393;-48
2020/12/25 10:17:34;;;;;;;18.90;11.40;;;5.70;94.40;;;;;;5106241;28;27451;-48
2020/12/25 10:20:19;;;;;;;16.30;10.63;;;5.70;94.30;;;;;;5106365;28;27664;-49
2020/12/25 10:23:03;;;;;;;19.88;10.75;;;5.70;94.40;;;;;;5105999;28;27533;-49
2020/12/25 10:25:48;;;;;;;15.57;9.38;;;5.70;94.40;;;;;;5106103;28;27394;-49
2020/12/25 10:28:32;;;;;;;16.13;9.82;;;5.70;94.40;;;;;;5106044;28;27549;-44
2020/12/25 10:31:17;;;;;;;13.88;9.00;;;5.70;94.30;;;;;;5105962;28;27427;-47
2020/12/25 10:34:01;;;;;;;11.68;8.38;;;5.80;94.30;;;;;;5106317;28;27402;-46
2020/12/25 10:36:46;;;;;;;11.75;8.35;;;5.80;94.20;;;;;;5105935;28;27320;-48
2020/12/25 10:39:30;;;;;;;12.68;8.32;;;5.80;93.90;;;;;;5105739;28;27368;-48
2020/12/25 10:42:15;;;;;;;13.48;8.70;;;5.80;94.40;;;;;;5105742;28;27409;-48
2020/12/25 10:44:59;;;;;;;10.00;7.60;;;5.80;94.50;;;;;;5106069;28;27332;-48
2020/12/25 10:47:44;;;;;;;13.32;9.00;;;5.70;94.20;;;;;;5105642;28;27408;-47
2020/12/25 10:50:28;;;;;;;11.93;8.38;;;5.60;94.40;;;;;;5102657;28;27362;-49
2020/12/25 10:53:13;;;;;;;10.70;7.82;;;5.60;94.50;;;;;;5105907;28;27344;-47
2020/12/25 10:55:57;;;;;;;10.10;7.68;;;5.60;94.60;;;;;;5105881;28;27337;-49
2020/12/25 10:58:42;;;;;;;12.70;8.40;;;5.50;94.40;;;;;;5102288;28;27340;-46
2020/12/25 11:01:28;;;;;;;10.50;6.85;;;5.50;94.50;;;;;;5105714;28;27455;-46
2020/12/25 11:04:13;;;;;;;9.80;7.28;;;5.40;94.60;;;;;;5105167;28;27335;-44
2020/12/25 11:06:58;;;;;;;12.52;8.50;;;5.40;94.70;;;;;;5105215;28;27406;-49
2020/12/25 11:09:42;;;;;;;11.07;7.72;;;5.40;94.80;;;;;;5104954;28;27381;-46
2020/12/25 11:12:27;;;;;;;10.82;7.90;;;5.40;95.00;;;;;;5105282;28;27453;-44
2020/12/25 11:15:12;;;;;;;9.95;7.15;;;5.50;94.80;;;;;;5105546;28;27427;-47
2020/12/25 11:17:56;;;;;;;9.88;7.30;;;5.70;94.70;;;;;;5104855;28;27485;-48
2020/12/25 11:20:43;;;;;;;7.65;6.53;;;5.90;94.40;;;;;;5105547;28;27453;-48
2020/12/25 11:23:27;;;;;;;7.82;5.63;;;6.10;94.00;;;;;;5105423;28;27332;-47
2020/12/25 11:26:21;;;;;;;8.52;6.25;;;6.30;93.40;;;;;;5104936;28;27442;-48
2020/12/25 11:29:06;;;;;;;7.22;5.43;;;6.50;93.20;;;;;;5105418;28;27466;-48
2020/12/25 11:31:51;;;;;;;7.93;5.65;;;6.60;92.80;;;;;;5104272;28;27449;-48
2020/12/25 11:34:35;;;;;;;7.97;5.45;;;6.80;92.50;;;;;;5105233;28;27863;-48
2020/12/25 11:37:20;;;;;;;7.53;5.70;;;7.00;92.10;;;;;;5105212;28;27413;-50
2020/12/25 11:40:04;;;;;;;6.10;5.18;;;7.10;91.90;;;;;;5104945;28;27461;-48
2020/12/25 11:42:49;;;;;;;7.47;5.60;;;7.20;91.70;;;;;;5105160;28;27430;-49
2020/12/25 11:45:33;;;;;;;7.13;5.03;;;7.20;91.60;;;;;;5104552;28;27460;-48
2020/12/25 11:48:17;;;;;;;9.32;4.88;;;7.30;91.60;;;;;;5105018;28;27438;-46
2020/12/25 11:51:03;;;;;;;5.90;4.60;;;7.50;91.30;;;;;;5105040;28;27488;-47
2020/12/25 11:53:47;;;;;;;7.03;4.50;;;7.60;91.00;;;;;;5104745;28;27471;-48
2020/12/25 11:56:31;;;;;;;6.97;4.45;;;7.70;90.70;;;;;;5100620;28;27441;-50
2020/12/25 11:59:16;;;;;;;8.13;4.88;;;7.70;90.30;;;;;;5104976;28;27421;-51
2020/12/25 12:02:00;;;;;;;6.88;4.18;;;7.70;90.20;;;;;;5104727;28;27374;-49
2020/12/25 12:04:45;;;;;;;5.90;4.40;;;7.60;90.30;;;;;;5104533;28;27315;-49
2020/12/25 12:07:29;;;;;;;10.20;4.65;;;7.50;90.50;;;;;;5104717;28;27327;-48
2020/12/25 12:10:14;;;;;;;5.40;4.35;;;7.40;90.30;;;;;;5104834;28;27414;-49
2020/12/25 12:12:59;;;;;;;7.20;4.18;;;7.20;90.40;;;;;;5104189;28;27391;-48
2020/12/25 12:15:43;;;;;;;9.18;4.15;;;7.20;90.80;;;;;;5104502;28;27397;-49
2020/12/25 12:18:27;;;;;;;7.13;4.22;;;7.20;90.60;;;;;;5104408;28;27377;-48
2020/12/25 12:21:12;;;;;;;5.63;4.28;;;7.30;90.50;;;;;;5104742;28;27444;-47
2020/12/25 12:23:57;;;;;;;6.18;3.70;;;7.40;90.50;;;;;;5108140;28;27397;-47
2020/12/25 12:26:41;;;;;;;5.55;4.03;;;7.50;90.70;;;;;;5107715;28;27495;-44
2020/12/25 12:29:26;;;;;;;5.53;3.60;;;7.60;90.30;;;;;;5107508;28;27491;-50
2020/12/25 12:32:11;;;;;;;6.03;3.83;;;7.80;90.20;;;;;;5108162;28;27414;-51
2020/12/25 12:34:56;;;;;;;6.65;4.05;;;7.90;90.20;;;;;;5107924;28;27411;-50
2020/12/25 12:37:44;;;;;;;5.70;4.07;;;8.30;89.30;;;;;;5107859;28;27440;-52
2020/12/25 12:40:29;;;;;;;5.28;3.55;;;8.50;88.30;;;;;;5107550;28;27359;-48
2020/12/25 12:43:13;;;;;;;5.00;4.15;;;8.80;87.60;;;;;;5108068;28;27377;-50
2020/12/25 12:45:58;;;;;;;4.43;3.45;;;8.90;86.70;;;;;;5107869;28;27337;-49
2020/12/25 12:48:42;;;;;;;5.05;3.80;;;8.90;86.10;;;;;;5104683;28;27313;-51
2020/12/25 12:51:27;;;;;;;6.05;3.40;;;8.80;85.30;;;;;;5107924;28;27402;-49
2020/12/25 12:54:11;;;;;;;6.57;4.22;;;8.70;85.90;;;;;;5107874;28;27487;-51
2020/12/25 12:56:56;;;;;;;4.82;3.92;;;8.60;86.60;;;;;;5107837;28;27461;-49
2020/12/25 12:59:40;;;;;;;7.60;3.97;;;8.50;86.60;;;;;;5107483;28;27471;-48
2020/12/25 13:02:25;;;;;;;6.85;3.88;;;8.50;86.90;;;;;;5107724;28;27860;-48
2020/12/25 13:05:10;;;;;;;3.80;3.42;;;8.40;86.70;;;;;;5106770;28;27424;-49
2020/12/25 13:07:54;;;;;;;7.45;4.03;;;8.30;87.10;;;;;;5107900;28;27410;-48
2020/12/25 13:10:41;;;;;;;5.18;3.25;;;8.20;87.60;;;;;;5107568;28;27410;-49
2020/12/25 13:13:26;;;;;;;8.20;3.65;;;8.10;88.00;;;;;;5107583;28;27837;-47
2020/12/25 13:16:11;;;;;;;6.20;3.30;;;8.00;88.60;;;;;;5107161;28;27426;-48
2020/12/25 13:18:55;;;;;;;4.70;3.22;;;8.00;89.30;;;;;;5103272;28;27453;-48
2020/12/25 13:21:40;;;;;;;4.20;3.55;;;7.90;89.00;;;;;;5107243;28;27488;-48
2020/12/25 13:24:26;;;;;;;4.70;3.88;;;7.90;89.30;;;;;;5107505;28;27464;-47
2020/12/25 13:27:10;;;;;;;5.25;3.67;;;7.90;89.50;;;;;;5106669;28;27423;-48
2020/12/25 13:29:55;;;;;;;4.70;4.03;;;7.90;89.90;;;;;;5107076;28;27476;-51
2020/12/25 13:32:39;;;;;;;4.45;3.38;;;7.90;90.10;;;;;;5106672;27;27446;-47
2020/12/25 13:35:25;;;;;;;3.75;3.28;;;7.80;90.20;;;;;;5103916;28;27938;-48
2020/12/25 13:38:09;;;;;;;3.97;3.38;;;7.80;90.20;;;;;;5107057;28;27418;-49
2020/12/25 13:40:54;;;;;;;4.93;3.55;;;7.80;90.10;;;;;;5106969;28;27464;-48
2020/12/25 13:43:38;;;;;;;6.50;3.72;;;7.70;89.90;;;;;;5106790;28;27459;-48
2020/12/25 13:46:23;;;;;;;7.97;4.07;;;7.60;89.90;;;;;;5106809;28;27863;-47
2020/12/25 13:49:07;;;;;;;5.20;3.30;;;7.50;90.10;;;;;;5106987;28;27481;-48
2020/12/25 13:51:53;;;;;;;5.63;3.10;;;7.40;90.10;;;;;;5106969;28;27443;-47
2020/12/25 13:54:38;;;;;;;3.88;3.25;;;7.40;90.20;;;;;;5106874;28;27450;-48
2020/12/25 13:57:22;;;;;;;3.47;2.65;;;7.30;90.40;;;;;;5106561;28;27443;-46
2020/12/25 14:00:07;;;;;;;5.60;3.40;;;7.20;90.20;;;;;;5106482;28;27434;-46
2020/12/25 14:02:55;;;;;;;3.70;3.20;;;7.20;90.40;;;;;;5105382;28;27389;-48
2020/12/25 14:05:40;;;;;;;4.90;3.28;;;7.10;90.70;;;;;;5105875;28;27585;-48
2020/12/25 14:08:24;;;;;;;4.03;3.17;;;7.00;90.30;;;;;;5106381;28;27413;-44
2020/12/25 14:11:09;;;;;;;5.68;3.30;;;6.90;90.70;;;;;;5106590;28;27544;-47
2020/12/25 14:13:53;;;;;;;6.47;3.80;;;6.90;90.70;;;;;;5106686;28;27402;-47
2020/12/25 14:16:38;;;;;;;3.95;3.20;;;6.80;90.60;;;;;;5106562;28;27560;-48
2020/12/25 14:19:22;;;;;;;3.85;3.35;;;6.80;90.70;;;;;;5106148;28;27415;-48
2020/12/25 14:22:07;;;;;;;4.22;3.47;;;6.80;90.60;;;;;;5106364;28;27492;-47
2020/12/25 14:24:51;;;;;;;5.35;3.35;;;6.70;90.50;;;;;;5106116;28;27335;-50
2020/12/25 14:27:36;;;;;;;5.28;3.40;;;6.70;90.50;;;;;;5105379;28;27392;-47
2020/12/25 14:30:20;;;;;;;4.35;3.33;;;6.60;90.50;;;;;;5105753;28;27396;-50